createdAt,value
2022-08-21T00:01:36.164Z,77.00
2022-08-21T00:04:10.458Z,77.10
2022-08-21T00:06:38.336Z,77.30
2022-08-21T00:09:07.660Z,77.40
2022-08-21T00:11:38.711Z,77.50
2022-08-21T00:14:07.272Z,77.70
2022-08-21T00:16:34.311Z,77.90
2022-08-21T00:19:01.447Z,78.10
2022-08-21T00:21:28.191Z,78.30
2022-08-21T00:23:55.088Z,78.60
2022-08-21T00:26:21.829Z,78.80
2022-08-21T00:28:49.902Z,79.00
2022-08-21T00:31:17.341Z,79.40
2022-08-21T00:33:44.258Z,79.70
2022-08-21T00:36:11.744Z,80.00
2022-08-21T00:38:38.841Z,80.20
2022-08-21T00:41:21.161Z,80.60
2022-08-21T00:43:56.661Z,81.10
2022-08-21T00:46:28.244Z,81.30
2022-08-21T00:48:56.260Z,81.70
2022-08-21T00:51:42.536Z,82.70
2022-08-21T00:54:18.430Z,82.60
2022-08-21T00:56:52.644Z,82.70
2022-08-21T00:59:21.872Z,82.80
2022-08-21T01:01:49.443Z,82.90
2022-08-21T01:04:17.290Z,83.00
2022-08-21T01:06:44.599Z,83.20
2022-08-21T01:09:12.138Z,83.40
2022-08-21T01:11:39.046Z,83.60
2022-08-21T01:14:05.895Z,83.90
2022-08-21T01:16:33.859Z,84.10
2022-08-21T01:19:00.597Z,84.30
2022-08-21T01:21:28.983Z,84.50
2022-08-21T01:23:58.080Z,84.70
2022-08-21T01:26:33.651Z,85.00
2022-08-21T01:29:35.149Z,85.30
2022-08-21T01:32:11.149Z,85.90
2022-08-21T01:34:41.164Z,85.80
2022-08-21T01:37:08.027Z,86.00
2022-08-21T01:39:36.025Z,86.30
2022-08-21T01:42:03.118Z,86.50
2022-08-21T01:44:30.309Z,86.70
2022-08-21T01:47:00.163Z,87.10
2022-08-21T01:49:27.030Z,87.60
2022-08-21T01:51:53.838Z,87.80
2022-08-21T01:54:20.597Z,88.00
2022-08-21T01:56:50.963Z,88.30
2022-08-21T01:59:17.656Z,88.30
2022-08-21T02:01:44.337Z,88.50
2022-08-21T02:04:12.274Z,88.70
2022-08-21T02:06:39.293Z,89.10
2022-08-21T02:09:08.588Z,89.20
2022-08-21T02:11:36.892Z,89.40
2022-08-21T02:14:03.721Z,89.60
2022-08-21T02:16:30.519Z,89.60
2022-08-21T02:18:57.329Z,89.70
2022-08-21T02:21:24.039Z,89.60
2022-08-21T02:23:50.817Z,89.70
2022-08-21T02:26:17.723Z,90.00
2022-08-21T02:28:44.534Z,90.00
2022-08-21T02:31:11.671Z,90.10
2022-08-21T02:33:38.640Z,90.10
2022-08-21T02:36:05.688Z,90.20
2022-08-21T02:38:35.572Z,90.20
2022-08-21T02:41:02.497Z,90.40
2022-08-21T02:43:29.653Z,90.50
2022-08-21T02:45:58.697Z,90.60
2022-08-21T02:48:28.791Z,90.80
2022-08-21T02:50:58.865Z,90.90
2022-08-21T02:53:26.439Z,91.10
2022-08-21T02:55:54.442Z,91.20
2022-08-21T02:58:28.932Z,91.30
2022-08-21T03:00:56.090Z,91.40
2022-08-21T03:03:23.272Z,91.50
2022-08-21T03:05:50.262Z,91.60
2022-08-21T03:08:17.806Z,91.80
2022-08-21T03:10:47.279Z,91.90
2022-08-21T03:13:14.865Z,92.10
2022-08-21T03:15:42.634Z,92.20
2022-08-21T03:18:10.703Z,92.40
2022-08-21T03:20:39.776Z,92.50
2022-08-21T03:23:12.687Z,92.70
2022-08-21T03:25:42.090Z,92.80
2022-08-21T03:28:13.228Z,93.00
2022-08-21T03:30:45.792Z,93.20
2022-08-21T03:33:15.448Z,93.40
2022-08-21T03:35:48.007Z,93.50
2022-08-21T03:38:14.825Z,93.70
2022-08-21T03:40:43.683Z,93.80
2022-08-21T03:43:10.826Z,93.90
2022-08-21T03:45:38.625Z,94.00
2022-08-21T03:48:06.553Z,94.20
2022-08-21T03:50:41.232Z,94.40
2022-08-21T03:53:17.127Z,94.50
2022-08-21T03:55:48.692Z,94.70
2022-08-21T03:58:20.218Z,94.90
2022-08-21T04:00:50.208Z,95.10
2022-08-21T04:03:18.002Z,95.30
2022-08-21T04:05:46.523Z,95.40
2022-08-21T04:08:14.833Z,95.50
2022-08-21T04:10:47.213Z,95.60
2022-08-21T04:13:15.517Z,95.80
2022-08-21T04:15:42.347Z,95.90
2022-08-21T04:18:09.411Z,96.00
2022-08-21T04:20:36.231Z,96.20
2022-08-21T04:23:04.230Z,96.30
2022-08-21T04:25:31.880Z,96.50
2022-08-21T04:27:59.349Z,96.70
2022-08-21T04:30:28.006Z,96.80
2022-08-21T04:32:57.818Z,96.90
2022-08-21T04:35:27.671Z,96.90
2022-08-21T04:37:54.641Z,97.10
2022-08-21T04:40:23.294Z,96.90
2022-08-21T04:42:55.756Z,97.20
2022-08-21T04:45:24.317Z,96.90
2022-08-21T04:47:53.525Z,97.20
2022-08-21T04:50:23.401Z,96.70
2022-08-21T04:52:50.130Z,96.70
2022-08-21T04:55:19.277Z,96.60
2022-08-21T04:57:48.635Z,96.50
2022-08-21T05:00:19.799Z,96.50
2022-08-21T05:02:53.252Z,96.60
2022-08-21T05:05:20.018Z,96.90
2022-08-21T05:07:47.357Z,96.70
2022-08-21T05:10:15.433Z,96.80
2022-08-21T05:12:43.722Z,97.00
2022-08-21T05:15:13.457Z,97.10
2022-08-21T05:17:41.274Z,97.20
2022-08-21T05:20:09.397Z,97.30
2022-08-21T05:22:36.121Z,97.30
2022-08-21T05:25:02.951Z,97.40
2022-08-21T05:27:36.879Z,97.50
2022-08-21T05:30:08.512Z,97.50
2022-08-21T05:32:35.857Z,97.60
2022-08-21T05:35:03.612Z,97.60
2022-08-21T05:37:30.413Z,97.70
2022-08-21T05:40:20.738Z,98.00
2022-08-21T05:42:43.770Z,97.60
2022-08-21T05:45:10.758Z,97.50
2022-08-21T05:47:37.543Z,97.50
2022-08-21T05:50:05.633Z,97.40
2022-08-21T05:52:32.525Z,97.30
2022-08-21T05:54:59.320Z,97.20
2022-08-21T05:57:26.417Z,97.10
2022-08-21T05:59:53.163Z,96.90
2022-08-21T06:02:21.184Z,96.70
2022-08-21T06:04:48.444Z,96.60
2022-08-21T06:07:15.769Z,96.40
2022-08-21T06:09:42.623Z,96.20
2022-08-21T06:12:12.222Z,96.00
2022-08-21T06:14:40.997Z,95.80
2022-08-21T06:17:12.003Z,95.60
2022-08-21T06:19:39.357Z,95.50
2022-08-21T06:22:06.547Z,95.50
2022-08-21T06:24:33.496Z,95.40
2022-08-21T06:27:08.473Z,95.30
2022-08-21T06:29:44.471Z,95.30
2022-08-21T06:32:13.606Z,95.30
2022-08-21T06:34:43.092Z,95.30
2022-08-21T06:37:09.810Z,95.20
2022-08-21T06:39:36.689Z,95.10
2022-08-21T06:42:04.359Z,94.90
2022-08-21T06:44:36.837Z,94.60
2022-08-21T06:47:03.594Z,94.60
2022-08-21T06:49:30.300Z,94.40
2022-08-21T06:51:57.004Z,94.10
2022-08-21T06:54:23.847Z,93.90
2022-08-21T06:56:50.652Z,94.00
2022-08-21T06:59:17.353Z,93.50
2022-08-21T07:01:44.229Z,93.20
2022-08-21T07:04:11.740Z,93.00
2022-08-21T07:06:38.494Z,92.70
2022-08-21T07:09:05.319Z,92.40
2022-08-21T07:11:32.676Z,92.10
2022-08-21T07:14:09.120Z,91.80
2022-08-21T07:16:36.044Z,91.40
2022-08-21T07:19:03.058Z,91.10
2022-08-21T07:21:29.837Z,90.90
2022-08-21T07:23:56.571Z,90.60
2022-08-21T07:26:24.499Z,90.40
2022-08-21T07:28:52.104Z,90.20
2022-08-21T07:31:22.265Z,90.00
2022-08-21T07:33:49.504Z,89.50
2022-08-21T07:36:16.373Z,88.90
2022-08-21T07:38:43.126Z,88.80
2022-08-21T07:41:26.504Z,88.50
2022-08-21T07:43:53.319Z,87.80
2022-08-21T07:46:20.691Z,87.40
2022-08-21T07:48:47.529Z,86.80
2022-08-21T07:51:17.504Z,86.10
2022-08-21T07:53:52.946Z,85.80
2022-08-21T07:56:20.563Z,85.40
2022-08-21T07:58:48.012Z,84.90
2022-08-21T08:01:15.256Z,84.40
2022-08-21T08:03:42.126Z,84.10
2022-08-21T08:06:13.091Z,83.50
2022-08-21T08:08:41.844Z,82.90
2022-08-21T08:11:13.052Z,82.50
2022-08-21T08:13:45.724Z,82.40
2022-08-21T08:16:12.591Z,82.20
2022-08-21T08:18:39.486Z,82.00
2022-08-21T08:21:06.449Z,81.70
2022-08-21T08:23:33.766Z,81.10
2022-08-21T08:26:00.502Z,80.80
2022-08-21T08:28:28.203Z,80.60
2022-08-21T08:30:54.998Z,80.30
2022-08-21T08:33:22.058Z,80.30
2022-08-21T08:35:51.342Z,79.70
2022-08-21T08:38:24.505Z,79.20
2022-08-21T08:41:01.109Z,78.80
2022-08-21T08:43:33.528Z,78.80
2022-08-21T08:46:05.128Z,78.60
2022-08-21T08:49:04.052Z,78.20
2022-08-21T08:51:33.974Z,77.50
2022-08-21T08:54:04.734Z,77.20
2022-08-21T08:56:34.596Z,77.20
2022-08-21T08:59:14.662Z,77.40
2022-08-21T09:01:43.158Z,76.90
2022-08-21T09:04:13.126Z,76.40
2022-08-21T09:07:26.333Z,76.00
2022-08-21T09:10:13.522Z,74.60
2022-08-21T09:12:46.902Z,74.00
2022-08-21T09:15:23.432Z,73.70
2022-08-21T09:18:14.875Z,73.00
2022-08-21T09:20:46.489Z,72.10
2022-08-21T09:23:28.725Z,71.50
2022-08-21T09:26:34.285Z,70.60
2022-08-21T09:29:01.722Z,69.40
2022-08-21T09:31:39.787Z,68.90
2022-08-21T09:34:15.684Z,68.50
2022-08-21T09:36:45.763Z,68.30
2022-08-21T09:39:14.712Z,68.10
2022-08-21T09:41:41.662Z,67.80
2022-08-21T09:44:09.638Z,67.60
2022-08-21T09:46:37.245Z,67.10
2022-08-21T09:49:06.727Z,66.30
2022-08-21T09:51:36.598Z,65.30
2022-08-21T09:54:06.270Z,64.60
2022-08-21T09:56:57.537Z,63.70
2022-08-21T09:59:36.450Z,63.30
2022-08-21T10:02:30.417Z,64.00
2022-08-21T10:05:20.640Z,62.90
2022-08-21T10:07:47.360Z,63.10
2022-08-21T10:10:16.877Z,63.10
2022-08-21T10:12:57.663Z,62.90
2022-08-21T10:15:46.395Z,62.80
2022-08-21T10:18:22.737Z,62.40
2022-08-21T10:20:57.000Z,62.40
2022-08-21T10:23:35.848Z,62.10
2022-08-21T10:26:46.342Z,61.80
2022-08-21T10:29:16.384Z,61.80
2022-08-21T10:32:04.759Z,61.70
2022-08-21T10:35:08.913Z,61.20
2022-08-21T10:37:41.454Z,61.10
2022-08-21T10:40:24.714Z,60.50
2022-08-21T10:43:22.524Z,60.20
2022-08-21T10:46:00.292Z,59.90
2022-08-21T10:48:44.487Z,59.60
2022-08-21T10:51:15.364Z,59.50
2022-08-21T10:54:05.467Z,59.20
2022-08-21T10:56:37.142Z,58.00
2022-08-21T10:59:42.639Z,57.20
2022-08-21T11:02:09.276Z,56.00
2022-08-21T11:04:57.908Z,55.90
2022-08-21T11:07:34.316Z,54.80
2022-08-21T11:10:11.369Z,54.60
2022-08-21T11:12:55.439Z,54.20
2022-08-21T11:15:44.493Z,54.20
2022-08-21T11:18:21.937Z,53.90
2022-08-21T11:20:53.618Z,53.80
2022-08-21T11:23:32.293Z,54.10
2022-08-21T11:26:18.757Z,53.90
2022-08-21T11:29:09.478Z,53.80
2022-08-21T11:31:42.219Z,53.50
2022-08-21T11:34:41.239Z,53.20
2022-08-21T11:37:13.889Z,52.30
2022-08-21T11:40:17.981Z,52.50
2022-08-21T11:42:51.393Z,52.20
2022-08-21T11:45:28.347Z,51.80
2022-08-21T11:48:18.683Z,51.10
2022-08-21T11:50:48.313Z,51.00
2022-08-21T11:53:36.052Z,51.60
2022-08-21T11:56:14.927Z,51.00
2022-08-21T11:58:57.814Z,50.90
2022-08-21T12:01:43.200Z,50.30
2022-08-21T12:04:26.498Z,50.00
2022-08-21T12:06:53.594Z,49.70
2022-08-21T12:09:26.023Z,49.50
2022-08-21T12:12:24.166Z,48.90
2022-08-21T12:15:04.328Z,48.50
2022-08-21T12:17:39.113Z,48.20
2022-08-21T12:20:24.532Z,47.90
2022-08-21T12:23:06.187Z,47.60
2022-08-21T12:26:00.937Z,47.70
2022-08-21T12:28:29.462Z,47.60
2022-08-21T12:30:58.213Z,47.70
2022-08-21T12:33:25.029Z,47.90
2022-08-21T12:35:54.922Z,48.20
2022-08-21T12:38:23.843Z,48.30
2022-08-21T12:40:56.750Z,48.50
2022-08-21T12:43:35.963Z,48.40
2022-08-21T12:46:05.393Z,48.40
2022-08-21T12:48:50.706Z,48.20
2022-08-21T12:51:23.615Z,48.40
2022-08-21T12:53:59.594Z,48.50
2022-08-21T12:56:29.533Z,48.40
2022-08-21T12:59:08.862Z,48.50
2022-08-21T13:01:41.472Z,48.80
2022-08-21T13:04:13.876Z,48.90
2022-08-21T13:06:46.663Z,49.00
2022-08-21T13:09:17.769Z,49.00
2022-08-21T13:11:47.743Z,49.00
2022-08-21T13:14:45.051Z,49.00
2022-08-21T13:17:13.779Z,49.00
2022-08-21T13:19:59.473Z,49.00
2022-08-21T13:22:30.653Z,49.10
2022-08-21T13:25:02.378Z,49.20
2022-08-21T13:27:35.147Z,49.40
2022-08-21T13:30:28.115Z,49.80
2022-08-21T13:33:01.611Z,49.70
2022-08-21T13:35:35.819Z,49.90
2022-08-21T13:38:05.044Z,50.10
2022-08-21T13:40:53.065Z,50.10
2022-08-21T13:43:23.302Z,49.90
2022-08-21T13:45:53.935Z,49.90
2022-08-21T13:48:22.813Z,49.80
2022-08-21T13:50:50.218Z,49.50
2022-08-21T13:53:36.569Z,49.20
2022-08-21T13:56:05.425Z,49.10
2022-08-21T13:58:45.697Z,48.90
2022-08-21T14:01:40.939Z,49.10
2022-08-21T14:04:23.029Z,48.90
2022-08-21T14:06:49.995Z,48.80
2022-08-21T14:09:25.839Z,48.50
2022-08-21T14:11:54.651Z,48.10
2022-08-21T14:14:25.739Z,47.90
2022-08-21T14:17:24.245Z,47.50
2022-08-21T14:19:51.928Z,47.20
2022-08-21T14:22:24.919Z,47.00
2022-08-21T14:25:07.504Z,46.70
2022-08-21T14:27:37.229Z,46.70
2022-08-21T14:30:20.679Z,46.70
2022-08-21T14:32:47.860Z,46.60
2022-08-21T14:35:18.330Z,47.10
2022-08-21T14:37:53.890Z,47.10
2022-08-21T14:40:23.018Z,47.10
2022-08-21T14:42:50.547Z,47.00
2022-08-21T14:45:28.142Z,46.90
2022-08-21T14:47:56.737Z,46.60
2022-08-21T14:50:23.640Z,46.50
2022-08-21T14:52:55.098Z,47.00
2022-08-21T14:55:21.935Z,46.20
2022-08-21T14:57:51.095Z,46.10
2022-08-21T15:00:23.849Z,46.10
2022-08-21T15:02:54.005Z,46.10
2022-08-21T15:05:31.572Z,46.20
2022-08-21T15:08:00.438Z,46.10
2022-08-21T15:10:27.391Z,46.10
2022-08-21T15:12:54.279Z,46.20
2022-08-21T15:15:21.087Z,46.30
2022-08-21T15:17:48.710Z,46.40
2022-08-21T15:20:15.922Z,46.50
2022-08-21T15:22:47.472Z,46.30
2022-08-21T15:25:15.014Z,46.80
2022-08-21T15:27:42.021Z,46.30
2022-08-21T15:30:09.363Z,46.30
2022-08-21T15:32:36.034Z,46.40
2022-08-21T15:35:03.518Z,46.30
2022-08-21T15:37:30.376Z,46.30
2022-08-21T15:39:57.378Z,46.30
2022-08-21T15:42:27.584Z,46.30
2022-08-21T15:44:56.554Z,45.90
2022-08-21T15:47:28.426Z,45.60
2022-08-21T15:49:55.126Z,45.60
2022-08-21T15:52:22.673Z,45.80
2022-08-21T15:54:49.744Z,45.80
2022-08-21T15:57:21.337Z,46.10
2022-08-21T16:00:14.289Z,45.20
2022-08-21T16:02:44.759Z,45.20
2022-08-21T16:05:13.052Z,45.30
2022-08-21T16:07:40.673Z,45.20
2022-08-21T16:10:08.809Z,44.90
2022-08-21T16:12:42.977Z,44.60
2022-08-21T16:15:12.092Z,44.50
2022-08-21T16:17:49.687Z,44.50
2022-08-21T16:20:25.731Z,44.50
2022-08-21T16:22:53.837Z,44.50
2022-08-21T16:25:21.358Z,44.80
2022-08-21T16:27:57.305Z,44.80
2022-08-21T16:30:26.832Z,44.80
2022-08-21T16:32:54.007Z,45.00
2022-08-21T16:35:21.918Z,45.20
2022-08-21T16:37:52.910Z,45.30
2022-08-21T16:40:23.029Z,45.40
2022-08-21T16:42:50.453Z,45.50
2022-08-21T16:45:21.114Z,45.60
2022-08-21T16:47:48.266Z,45.70
2022-08-21T16:50:19.424Z,46.40
2022-08-21T16:52:46.261Z,45.70
2022-08-21T16:55:12.979Z,45.70
2022-08-21T16:57:39.757Z,45.90
2022-08-21T17:00:12.939Z,45.90
2022-08-21T17:02:46.602Z,45.60
2022-08-21T17:05:14.400Z,45.50
2022-08-21T17:07:42.539Z,45.40
2022-08-21T17:10:12.129Z,45.40
2022-08-21T17:12:40.151Z,45.50
2022-08-21T17:15:30.120Z,45.40
2022-08-21T17:17:57.211Z,45.60
2022-08-21T17:20:26.098Z,45.50
2022-08-21T17:22:53.262Z,45.40
2022-08-21T17:25:20.229Z,45.30
2022-08-21T17:27:49.339Z,45.30
2022-08-21T17:30:17.343Z,45.30
2022-08-21T17:32:46.028Z,45.30
2022-08-21T17:35:13.897Z,45.20
2022-08-21T17:37:41.228Z,45.20
2022-08-21T17:40:12.277Z,45.30
2022-08-21T17:42:41.593Z,45.90
2022-08-21T17:45:11.289Z,45.40
2022-08-21T17:47:39.006Z,45.50
2022-08-21T17:50:07.256Z,45.60
2022-08-21T17:52:34.158Z,45.70
2022-08-21T17:55:01.151Z,45.80
2022-08-21T17:57:31.953Z,45.90
2022-08-21T17:59:59.054Z,46.10
2022-08-21T18:02:26.714Z,46.30
2022-08-21T18:04:55.404Z,46.40
2022-08-21T18:07:31.848Z,46.60
2022-08-21T18:10:01.033Z,46.80
2022-08-21T18:12:28.659Z,46.80
2022-08-21T18:14:55.452Z,47.10
2022-08-21T18:17:23.823Z,47.20
2022-08-21T18:19:50.729Z,47.50
2022-08-21T18:22:17.554Z,47.60
2022-08-21T18:24:44.359Z,47.90
2022-08-21T18:27:13.089Z,48.00
2022-08-21T18:29:46.612Z,48.20
2022-08-21T18:32:31.266Z,48.40
2022-08-21T18:35:04.947Z,48.50
2022-08-21T18:37:32.039Z,48.70
2022-08-21T18:39:59.207Z,48.80
2022-08-21T18:42:28.538Z,48.90
2022-08-21T18:45:00.842Z,49.00
2022-08-21T18:47:33.742Z,49.10
2022-08-21T18:50:00.998Z,49.20
2022-08-21T18:52:28.564Z,49.30
2022-08-21T18:54:55.748Z,49.40
2022-08-21T18:57:25.539Z,49.50
2022-08-21T18:59:52.188Z,49.50
2022-08-21T19:02:19.226Z,49.60
2022-08-21T19:04:47.043Z,49.70
2022-08-21T19:07:15.118Z,49.70
2022-08-21T19:09:52.720Z,49.80
2022-08-21T19:12:29.528Z,49.90
2022-08-21T19:14:56.506Z,50.10
2022-08-21T19:17:24.908Z,50.20
2022-08-21T19:19:52.290Z,50.20
2022-08-21T19:22:19.669Z,50.40
2022-08-21T19:27:34.214Z,50.70
2022-08-21T19:30:01.568Z,50.80
2022-08-21T19:32:28.497Z,51.00
2022-08-21T19:34:55.325Z,51.20
2022-08-21T19:37:24.748Z,51.30
2022-08-21T19:39:51.816Z,51.50
2022-08-21T19:42:21.623Z,51.60
2022-08-21T19:44:50.924Z,51.70
2022-08-21T19:47:21.179Z,52.50
2022-08-21T19:49:56.433Z,51.90
2022-08-21T19:52:23.215Z,52.00
2022-08-21T19:54:51.379Z,52.10
2022-08-21T19:57:18.581Z,52.20
2022-08-21T19:59:45.865Z,52.30
2022-08-21T20:02:14.941Z,52.30
2022-08-21T20:04:53.544Z,52.40
2022-08-21T20:07:26.298Z,52.40
2022-08-21T20:09:54.389Z,52.40
2022-08-21T20:12:22.850Z,52.40
2022-08-21T20:14:50.748Z,52.40
2022-08-21T20:17:18.800Z,52.40
2022-08-21T20:19:51.236Z,52.50
2022-08-21T20:22:21.005Z,52.40
2022-08-21T20:24:48.090Z,52.50
2022-08-21T20:27:21.640Z,52.50
2022-08-21T20:29:48.657Z,52.60
2022-08-21T20:32:17.253Z,52.70
2022-08-21T20:34:45.246Z,52.70
2022-08-21T20:37:12.619Z,52.70
2022-08-21T20:39:39.673Z,52.80
2022-08-21T20:42:09.924Z,52.90
2022-08-21T20:44:37.408Z,52.90
2022-08-21T20:47:13.613Z,53.10
2022-08-21T20:49:46.531Z,53.20
2022-08-21T20:52:15.848Z,53.30
2022-08-21T20:54:52.445Z,53.40
2022-08-21T20:57:29.510Z,53.50
2022-08-21T21:00:14.461Z,53.50
2022-08-21T21:03:33.973Z,53.70
2022-08-21T21:06:25.984Z,53.90
2022-08-21T21:09:04.301Z,54.00
2022-08-21T21:11:39.815Z,54.00
2022-08-21T21:14:38.166Z,54.00
2022-08-21T21:17:13.381Z,54.40
2022-08-21T21:19:58.908Z,54.40
2022-08-21T21:22:30.754Z,54.70
2022-08-21T21:25:08.090Z,54.80
2022-08-21T21:27:57.284Z,55.00
2022-08-21T21:30:46.387Z,54.80
2022-08-21T21:33:16.376Z,55.50
2022-08-21T21:35:48.990Z,55.80
2022-08-21T21:38:35.406Z,56.10
2022-08-21T21:41:42.932Z,56.40
2022-08-21T21:44:25.249Z,56.60
2022-08-21T21:47:27.502Z,56.70
2022-08-21T21:50:24.679Z,57.00
2022-08-21T21:53:26.070Z,57.20
2022-08-21T21:56:29.107Z,57.40
2022-08-21T21:59:14.424Z,57.50
2022-08-21T22:01:51.332Z,57.70
2022-08-21T22:04:52.199Z,57.80
2022-08-21T22:07:43.648Z,58.10
2022-08-21T22:10:32.409Z,58.20
2022-08-21T22:13:25.295Z,58.30
2022-08-21T22:15:54.743Z,58.40
2022-08-21T22:18:29.492Z,58.40
2022-08-21T22:21:00.178Z,58.60
2022-08-21T22:23:31.770Z,58.60
2022-08-21T22:26:09.119Z,58.70
2022-08-21T22:28:41.803Z,58.90
2022-08-21T22:34:06.983Z,59.00
2022-08-21T22:37:02.773Z,59.10
2022-08-21T22:39:38.847Z,59.10
2022-08-21T22:42:08.242Z,59.30
2022-08-21T22:44:51.030Z,59.40
2022-08-21T22:47:34.089Z,59.60
2022-08-21T22:50:16.705Z,59.60
2022-08-21T22:52:57.131Z,59.70
2022-08-21T22:55:32.951Z,59.90
2022-08-21T22:58:05.966Z,59.90
2022-08-21T23:00:56.668Z,60.00
2022-08-21T23:03:26.196Z,60.20
2022-08-21T23:06:02.151Z,60.20
2022-08-21T23:08:35.887Z,60.30
2022-08-21T23:11:14.635Z,60.50
2022-08-21T23:13:44.639Z,60.70
2022-08-21T23:16:11.270Z,60.80
2022-08-21T23:19:19.820Z,60.90
2022-08-21T23:21:59.819Z,61.10
2022-08-21T23:24:33.121Z,61.00
2022-08-21T23:27:12.388Z,61.20
2022-08-21T23:29:54.709Z,61.30
2022-08-21T23:33:00.379Z,61.40
2022-08-21T23:36:30.269Z,61.60
2022-08-21T23:39:27.769Z,61.50
2022-08-21T23:42:14.357Z,62.40
2022-08-21T23:44:53.054Z,61.70
2022-08-21T23:47:22.873Z,61.80
2022-08-21T23:49:58.390Z,61.90
2022-08-21T23:52:44.374Z,62.20
2022-08-21T23:55:30.754Z,62.30
2022-08-21T23:58:31.949Z,62.30
